Peristerion, Greece
Current Conditions -  °F | °C
As of 11:20 AM on Friday 24 Oct 2014 (Local Time) from LGEL Reporting Station
Broken Clouds Broken Clouds  
Wind Chill: 63°   Ceiling: 2500
Heat Index: 63°   Visibility: 6mi
Dew Point: 52°   Wind: 10mph
Humidity: 68%   Direction: 100°E
Pressure: 29.74"   Gusts: NA
Location:  38.02°N, 23.7°E
Report Text: LGEL 240820Z 10009KT 9999 FEW018TCU BKN025 BKN070 17/11 Q1007
Loading
Personal Weather Stations






























Interactive Weather Map New forecast layout! Learn more

10-Day Weather Forecast

Advertisements
Track Severe Weather on mobile